Time;durP1;ratioP1;P1;durP2;ratioP2;P2;SDS_P1;SDS_P2;PMS_P1;PMS_P2;Temp;Humidity;BMP_temperature;BMP_pressure;BME280_temperature;BME280_humidity;BME280_pressure;Samples;Min_cycle;Max_cycle;Signal;HPM_P1;HPM_P2
2023/04/15 00:00:14;;;;;;;5.37;2.08;;;11.60;64.30;;;;;;2312321;55;21038;-70
2023/04/15 00:02:41;;;;;;;4.43;1.65;;;11.50;64.20;;;;;;2313201;55;21023;-71
2023/04/15 00:05:10;;;;;;;3.67;1.40;;;11.50;64.20;;;;;;2552787;54;21512;-71
2023/04/15 00:07:37;;;;;;;2.60;1.02;;;11.50;64.30;;;;;;2313942;54;20959;-71
2023/04/15 00:10:04;;;;;;;2.22;0.98;;;11.40;64.30;;;;;;2553440;54;21051;-71
2023/04/15 00:12:31;;;;;;;2.40;0.77;;;11.40;64.50;;;;;;2553164;54;20951;-73
2023/04/15 00:14:57;;;;;;;3.15;1.10;;;11.30;64.40;;;;;;2553825;53;21460;-70
2023/04/15 00:17:24;;;;;;;2.20;0.82;;;11.30;64.50;;;;;;2553611;54;21534;-73
2023/04/15 00:19:50;;;;;;;1.35;0.55;;;11.30;64.60;;;;;;2553962;54;21832;-70
2023/04/15 00:22:17;;;;;;;4.68;1.00;;;11.30;64.70;;;;;;2554257;54;20977;-71
2023/04/15 00:24:44;;;;;;;2.10;0.70;;;11.20;64.60;;;;;;2314812;55;21007;-73
2023/04/15 00:27:10;;;;;;;2.60;1.08;;;11.20;64.60;;;;;;2312645;54;21024;-70
2023/04/15 00:29:36;;;;;;;2.00;0.70;;;11.20;64.70;;;;;;2550963;54;21003;-73
2023/04/15 00:32:03;;;;;;;2.03;0.70;;;11.00;64.50;;;;;;2553569;54;21494;-72
2023/04/15 00:34:32;;;;;;;1.75;0.65;;;11.10;64.70;;;;;;2551986;53;20983;-70
2023/04/15 00:37:00;;;;;;;1.65;0.60;;;11.10;64.80;;;;;;2314108;54;20974;-71
2023/04/15 00:39:27;;;;;;;4.15;0.80;;;11.10;64.80;;;;;;2309564;55;20982;-71
2023/04/15 00:41:53;;;;;;;3.35;0.73;;;11.10;64.80;;;;;;2312787;55;21575;-70
2023/04/15 00:44:19;;;;;;;2.58;0.60;;;11.10;64.80;;;;;;2311797;55;21002;-70
2023/04/15 00:46:50;;;;;;;2.87;0.88;;;11.10;64.70;;;;;;2313206;55;20969;-70
2023/04/15 00:49:18;;;;;;;1.80;0.60;;;11.00;64.30;;;;;;2313114;55;21011;-73
2023/04/15 00:51:44;;;;;;;1.42;0.62;;;11.00;64.50;;;;;;2312208;55;20990;-72
2023/04/15 00:54:11;;;;;;;2.83;0.80;;;11.00;64.50;;;;;;2312337;55;20986;-70
2023/04/15 00:56:38;;;;;;;1.60;0.60;;;10.90;64.40;;;;;;2317362;54;20921;-72
2023/04/15 00:59:05;;;;;;;2.37;0.90;;;10.90;64.40;;;;;;2551871;54;21106;-73
2023/04/15 01:01:33;;;;;;;2.05;0.80;;;10.90;64.50;;;;;;2312381;55;21788;-69
2023/04/15 01:04:00;;;;;;;3.95;0.82;;;10.80;64.30;;;;;;2551880;53;20979;-70
2023/04/15 01:06:27;;;;;;;3.47;0.95;;;10.80;64.40;;;;;;2549389;53;22192;-70
2023/04/15 01:08:54;;;;;;;1.52;0.60;;;10.70;64.30;;;;;;2311058;54;21463;-70
2023/04/15 01:11:21;;;;;;;1.77;0.75;;;10.70;64.40;;;;;;2309220;55;20947;-72
2023/04/15 01:13:47;;;;;;;3.08;0.88;;;10.70;64.40;;;;;;2309924;55;20947;-73
2023/04/15 01:16:14;;;;;;;2.40;0.85;;;10.60;64.20;;;;;;2548738;53;20954;-71
2023/04/15 01:18:40;;;;;;;2.33;0.70;;;10.60;64.30;;;;;;2310138;54;22999;-69
2023/04/15 01:21:06;;;;;;;1.77;0.55;;;10.50;64.30;;;;;;2549157;53;20958;-69
2023/04/15 01:23:36;;;;;;;3.17;0.70;;;10.50;64.30;;;;;;2308925;54;22909;-70
2023/04/15 01:26:02;;;;;;;7.75;3.28;;;10.50;64.30;;;;;;2309059;55;20938;-70
2023/04/15 01:28:28;;;;;;;10.13;4.43;;;10.40;64.20;;;;;;2544866;53;21013;-71
2023/04/15 01:31:11;;;;;;;11.55;4.57;;;10.40;64.30;;;;;;2553333;54;21070;-72
2023/04/15 01:33:38;;;;;;;9.50;3.92;;;10.30;63.70;;;;;;2550991;53;20893;-72
2023/04/15 01:36:05;;;;;;;7.47;2.45;;;10.30;64.30;;;;;;2554489;54;21351;-72
2023/04/15 01:38:33;;;;;;;5.78;2.03;;;10.20;64.30;;;;;;2554431;54;21002;-72
2023/04/15 01:41:03;;;;;;;4.93;1.98;;;10.20;64.40;;;;;;2316663;54;20945;-70
2023/04/15 01:43:30;;;;;;;6.07;1.33;;;10.10;64.40;;;;;;2548791;53;21355;-69
2023/04/15 01:45:56;;;;;;;4.25;1.00;;;10.10;64.40;;;;;;2314901;54;20963;-72
2023/04/15 01:48:22;;;;;;;4.30;1.33;;;10.10;64.30;;;;;;2309729;54;20950;-72
2023/04/15 01:50:49;;;;;;;3.20;1.10;;;10.00;64.30;;;;;;2314670;55;21010;-72
2023/04/15 01:53:17;;;;;;;3.03;1.10;;;10.00;64.50;;;;;;2317111;55;21551;-71
2023/04/15 01:55:43;;;;;;;2.47;0.90;;;9.90;65.50;;;;;;2548879;54;21011;-70
2023/04/15 01:58:10;;;;;;;2.50;1.00;;;9.90;65.60;;;;;;2315332;54;21322;-70
2023/04/15 02:00:37;;;;;;;2.83;0.90;;;9.90;65.60;;;;;;2313928;54;21001;-71
2023/04/15 02:03:05;;;;;;;2.20;0.73;;;9.80;65.50;;;;;;2291372;54;20930;-71
2023/04/15 02:05:31;;;;;;;2.00;0.90;;;9.80;65.60;;;;;;2314764;54;21878;-70
2023/04/15 02:08:00;;;;;;;3.78;1.30;;;9.80;65.70;;;;;;2314524;55;20943;-69
2023/04/15 02:10:26;;;;;;;2.25;0.93;;;9.80;65.80;;;;;;2314543;54;20929;-69
2023/04/15 02:12:53;;;;;;;1.92;0.70;;;9.70;65.80;;;;;;2313684;55;21790;-71
2023/04/15 02:15:19;;;;;;;3.65;1.12;;;9.70;65.90;;;;;;2522809;54;20947;-69
2023/04/15 02:17:49;;;;;;;2.92;0.75;;;9.70;66.10;;;;;;2554774;53;20920;-71
2023/04/15 02:20:20;;;;;;;3.12;0.90;;;9.70;66.10;;;;;;2313808;55;21298;-72
2023/04/15 02:22:47;;;;;;;3.22;1.10;;;9.70;66.10;;;;;;2554823;54;20920;-71
2023/04/15 02:25:19;;;;;;;2.03;0.82;;;9.70;66.20;;;;;;2311537;54;21022;-70
2023/04/15 02:27:45;;;;;;;3.15;0.80;;;9.70;66.30;;;;;;2540633;53;21914;-70
2023/04/15 02:30:12;;;;;;;1.90;0.77;;;9.60;66.20;;;;;;2316297;55;21003;-73
2023/04/15 02:32:39;;;;;;;5.15;1.30;;;9.60;66.30;;;;;;2310386;54;20974;-71
2023/04/15 02:35:06;;;;;;;2.53;1.00;;;9.60;66.30;;;;;;2313692;54;20992;-71
2023/04/15 02:37:39;;;;;;;3.15;0.95;;;9.60;66.70;;;;;;2553190;53;20989;-70
2023/04/15 02:40:12;;;;;;;4.43;0.80;;;9.60;66.40;;;;;;2314671;54;20931;-72
2023/04/15 02:42:38;;;;;;;1.92;0.80;;;9.60;66.10;;;;;;2314148;54;21042;-68
2023/04/15 02:45:06;;;;;;;3.70;1.08;;;9.60;66.40;;;;;;2314620;55;20942;-72
2023/04/15 02:47:34;;;;;;;1.73;0.80;;;9.60;66.40;;;;;;2314416;55;21365;-71
2023/04/15 02:50:02;;;;;;;2.00;0.77;;;9.60;66.40;;;;;;2554760;54;20979;-71
2023/04/15 02:52:28;;;;;;;1.65;0.70;;;9.60;66.40;;;;;;2313965;54;21599;-71
2023/04/15 02:55:01;;;;;;;2.60;0.80;;;9.50;66.30;;;;;;2544737;54;20939;-72
2023/04/15 02:57:28;;;;;;;2.53;0.70;;;9.50;66.30;;;;;;2313801;54;20959;-71
2023/04/15 02:59:55;;;;;;;2.47;0.70;;;9.50;66.40;;;;;;2312502;54;20944;-71
2023/04/15 03:02:21;;;;;;;2.22;0.88;;;9.50;66.40;;;;;;2546462;54;21003;-69
2023/04/15 03:04:48;;;;;;;3.62;0.90;;;9.50;66.40;;;;;;2310477;54;21438;-70
2023/04/15 03:07:14;;;;;;;2.58;0.62;;;9.40;66.30;;;;;;2309973;54;21027;-70
2023/04/15 03:09:40;;;;;;;3.42;1.10;;;9.40;66.40;;;;;;2312775;55;21035;-72
2023/04/15 03:12:10;;;;;;;2.72;0.77;;;9.40;66.50;;;;;;2552987;54;20975;-72
2023/04/15 03:14:36;;;;;;;2.75;1.02;;;9.40;66.50;;;;;;2312741;55;21014;-72
2023/04/15 03:17:04;;;;;;;2.20;0.80;;;9.40;66.70;;;;;;2310926;55;21457;-69
2023/04/15 03:19:30;;;;;;;2.78;1.00;;;9.40;66.70;;;;;;2310478;55;20947;-72
2023/04/15 03:21:57;;;;;;;2.62;1.00;;;9.40;66.90;;;;;;2311149;55;21086;-71
2023/04/15 03:24:23;;;;;;;1.83;0.88;;;9.30;66.90;;;;;;2550571;53;21262;-71
2023/04/15 03:26:50;;;;;;;2.95;1.10;;;9.30;66.90;;;;;;2311108;55;20943;-70
2023/04/15 03:29:17;;;;;;;2.80;1.10;;;9.40;67.10;;;;;;2549582;53;20966;-71
2023/04/15 03:31:43;;;;;;;3.42;1.02;;;9.40;67.20;;;;;;2549914;54;21011;-70
2023/04/15 03:34:09;;;;;;;2.90;1.00;;;9.40;67.20;;;;;;2310295;55;21086;-73
2023/04/15 03:36:36;;;;;;;3.05;1.10;;;9.40;67.30;;;;;;2310156;55;21094;-70
2023/04/15 03:39:03;;;;;;;2.87;0.88;;;9.40;67.30;;;;;;2551240;54;21011;-70
2023/04/15 03:41:29;;;;;;;3.03;1.10;;;9.40;67.30;;;;;;2311148;54;20937;-70
2023/04/15 03:43:56;;;;;;;1.67;0.85;;;9.40;67.40;;;;;;2309715;54;20983;-69
2023/04/15 03:46:22;;;;;;;2.58;0.80;;;9.40;67.40;;;;;;2311425;55;21452;-70
2023/04/15 03:48:49;;;;;;;2.50;1.00;;;9.40;67.40;;;;;;2312469;54;20982;-70
2023/04/15 03:51:15;;;;;;;2.42;1.00;;;9.40;67.50;;;;;;2552559;53;21393;-70
2023/04/15 03:53:44;;;;;;;2.28;1.00;;;9.50;67.60;;;;;;2553054;53;20951;-70
2023/04/15 03:56:10;;;;;;;3.00;1.08;;;9.50;67.60;;;;;;2551998;53;21490;-70
2023/04/15 03:58:37;;;;;;;5.68;1.90;;;9.50;67.60;;;;;;2539760;53;20936;-69
2023/04/15 04:01:03;;;;;;;5.50;1.83;;;9.50;67.60;;;;;;2313307;55;20967;-71
2023/04/15 04:03:30;;;;;;;5.03;1.92;;;9.50;67.60;;;;;;2552610;53;20991;-70
2023/04/15 04:05:57;;;;;;;4.32;1.75;;;9.50;67.60;;;;;;2553238;54;21022;-72
2023/04/15 04:08:26;;;;;;;5.32;1.95;;;9.50;67.60;;;;;;2314509;54;20957;-69
2023/04/15 04:10:52;;;;;;;3.90;1.30;;;9.50;67.60;;;;;;2549730;54;20979;-70
2023/04/15 04:13:21;;;;;;;3.78;1.30;;;9.50;67.70;;;;;;2312375;55;22829;-69
2023/04/15 04:15:49;;;;;;;2.67;0.90;;;9.50;67.70;;;;;;2312678;55;21604;-73
2023/04/15 04:18:15;;;;;;;2.85;0.80;;;9.60;67.90;;;;;;2312427;54;21506;-73
2023/04/15 04:20:42;;;;;;;2.72;0.75;;;9.60;67.90;;;;;;2552696;54;20979;-71
2023/04/15 04:23:09;;;;;;;1.83;0.85;;;9.60;67.90;;;;;;2313029;55;20959;-72
2023/04/15 04:25:36;;;;;;;2.70;0.90;;;9.60;67.90;;;;;;2309625;54;21000;-70
2023/04/15 04:28:03;;;;;;;2.35;0.80;;;9.60;68.00;;;;;;2311531;54;21633;-71
2023/04/15 04:30:30;;;;;;;2.37;0.82;;;9.60;68.10;;;;;;2308929;54;21082;-71
2023/04/15 04:32:56;;;;;;;3.20;0.70;;;9.60;68.10;;;;;;2310505;55;20935;-70
2023/04/15 04:35:23;;;;;;;2.67;0.75;;;9.50;68.00;;;;;;2310231;55;20975;-69
2023/04/15 04:37:51;;;;;;;1.65;0.60;;;9.70;68.20;;;;;;2311224;54;21029;-73
2023/04/15 04:40:17;;;;;;;2.72;1.30;;;9.70;68.20;;;;;;2548005;53;20939;-72
2023/04/15 04:42:44;;;;;;;3.37;1.30;;;9.70;68.20;;;;;;2550274;54;20959;-70
2023/04/15 04:45:10;;;;;;;3.10;1.30;;;9.70;68.30;;;;;;2310098;54;20988;-71
2023/04/15 04:47:36;;;;;;;3.67;1.40;;;9.80;68.40;;;;;;2304071;54;21095;-71
2023/04/15 04:50:03;;;;;;;3.12;1.60;;;9.80;68.50;;;;;;2310278;54;21696;-70
2023/04/15 04:52:30;;;;;;;4.03;1.40;;;9.80;68.50;;;;;;2541919;53;21339;-70
2023/04/15 04:54:59;;;;;;;3.78;1.60;;;9.80;68.50;;;;;;2302217;54;20939;-70
2023/04/15 04:57:25;;;;;;;3.22;1.37;;;9.90;68.50;;;;;;2550005;53;21082;-69
2023/04/15 04:59:51;;;;;;;3.37;1.30;;;9.90;68.70;;;;;;2550603;54;20994;-71
2023/04/15 05:02:18;;;;;;;3.90;1.10;;;9.90;68.70;;;;;;2549824;54;21090;-70
2023/04/15 05:04:44;;;;;;;3.70;1.30;;;9.90;68.70;;;;;;2310954;55;21066;-73
2023/04/15 05:07:11;;;;;;;3.78;1.62;;;10.00;67.70;;;;;;2310333;55;20963;-73
2023/04/15 05:09:37;;;;;;;7.68;2.53;;;10.00;67.70;;;;;;2549834;54;20943;-70
2023/04/15 05:12:08;;;;;;;5.30;2.50;;;10.00;67.70;;;;;;2306057;54;20951;-69
2023/04/15 05:14:34;;;;;;;5.70;2.60;;;10.10;67.70;;;;;;2545428;54;20949;-71
2023/04/15 05:17:03;;;;;;;4.97;2.00;;;10.10;67.80;;;;;;2312165;54;21874;-73
2023/04/15 05:19:32;;;;;;;3.62;1.80;;;10.10;67.80;;;;;;2312019;54;20969;-72
2023/04/15 05:21:58;;;;;;;4.47;1.98;;;10.10;67.70;;;;;;2549187;54;21018;-70
2023/04/15 05:24:26;;;;;;;4.47;1.85;;;10.20;67.80;;;;;;2549495;54;20967;-72
2023/04/15 05:26:55;;;;;;;4.53;2.12;;;10.20;67.80;;;;;;2550182;54;21421;-71
2023/04/15 05:29:22;;;;;;;4.07;2.00;;;10.20;67.90;;;;;;2309949;55;20974;-72
2023/04/15 05:31:48;;;;;;;5.32;1.85;;;10.20;67.90;;;;;;2309769;55;21018;-70
2023/04/15 05:34:16;;;;;;;6.47;1.92;;;10.30;68.10;;;;;;2308407;54;20943;-70
2023/04/15 05:36:42;;;;;;;4.10;1.70;;;10.30;68.00;;;;;;2549578;53;21132;-72
2023/04/15 05:39:08;;;;;;;4.28;1.90;;;10.30;68.00;;;;;;2309902;55;21003;-71
2023/04/15 05:41:34;;;;;;;3.85;1.50;;;10.30;68.10;;;;;;2308594;55;20990;-71
2023/04/15 05:44:01;;;;;;;2.78;1.35;;;10.40;68.20;;;;;;2548222;54;20983;-71
2023/04/15 05:46:27;;;;;;;3.53;1.40;;;10.40;68.10;;;;;;2545020;54;20983;-70
2023/04/15 05:48:54;;;;;;;2.60;1.17;;;10.50;68.20;;;;;;2545389;53;20942;-72
2023/04/15 05:51:21;;;;;;;5.37;1.48;;;10.50;68.20;;;;;;2305574;55;20938;-71
2023/04/15 05:53:48;;;;;;;3.60;1.15;;;10.50;68.20;;;;;;2545422;54;21019;-69
2023/04/15 05:56:14;;;;;;;3.78;1.77;;;10.60;68.40;;;;;;2545349;53;20945;-73
2023/04/15 05:58:41;;;;;;;4.05;2.15;;;10.60;68.40;;;;;;2545680;53;21456;-72
2023/04/15 06:01:09;;;;;;;3.33;1.67;;;10.60;68.40;;;;;;2546198;54;21003;-70
2023/04/15 06:03:36;;;;;;;4.57;1.95;;;10.70;68.50;;;;;;2545812;53;20935;-71
2023/04/15 06:06:02;;;;;;;5.68;2.08;;;10.70;68.50;;;;;;2307161;55;20955;-72
2023/04/15 06:08:30;;;;;;;3.45;1.50;;;10.70;68.40;;;;;;2304964;55;21007;-73
2023/04/15 06:10:57;;;;;;;5.53;1.75;;;10.80;68.50;;;;;;2305921;55;20931;-71
2023/04/15 06:13:23;;;;;;;3.05;1.50;;;10.80;68.50;;;;;;2538604;53;21681;-70
2023/04/15 06:15:50;;;;;;;3.33;1.60;;;10.90;68.60;;;;;;2544807;54;21005;-73
2023/04/15 06:18:19;;;;;;;3.90;1.48;;;10.90;68.50;;;;;;2541776;54;21473;-71
2023/04/15 06:20:45;;;;;;;4.72;1.45;;;10.90;68.50;;;;;;2306937;54;21494;-71
2023/04/15 06:23:11;;;;;;;2.70;1.20;;;11.00;68.60;;;;;;2307186;54;20939;-71
2023/04/15 06:25:38;;;;;;;3.37;1.60;;;11.00;68.60;;;;;;2546034;53;20943;-71
2023/04/15 06:28:07;;;;;;;4.32;2.20;;;11.10;68.80;;;;;;2300705;54;21011;-72
2023/04/15 06:30:34;;;;;;;5.22;2.05;;;11.10;68.80;;;;;;2305918;54;21801;-70
2023/04/15 06:33:04;;;;;;;4.60;1.90;;;11.10;68.80;;;;;;2545982;54;21464;-71
2023/04/15 06:35:30;;;;;;;4.10;1.92;;;11.20;68.90;;;;;;2306557;55;21031;-70
2023/04/15 06:37:56;;;;;;;4.95;2.20;;;11.20;68.90;;;;;;2307612;54;21007;-70
2023/04/15 06:40:24;;;;;;;5.55;2.00;;;11.30;69.00;;;;;;2543650;53;21504;-73
2023/04/15 06:42:55;;;;;;;2.87;1.30;;;11.30;69.00;;;;;;2541976;53;20995;-72
2023/04/15 06:45:22;;;;;;;3.80;1.60;;;11.30;69.00;;;;;;2546168;53;21019;-73
2023/04/15 06:47:51;;;;;;;4.57;1.73;;;11.40;69.10;;;;;;2306992;54;20959;-72
2023/04/15 06:50:17;;;;;;;4.18;1.73;;;11.50;69.80;;;;;;2307144;54;21774;-71
2023/04/15 06:52:44;;;;;;;4.03;1.80;;;11.50;69.10;;;;;;2545328;53;21360;-71
2023/04/15 06:55:10;;;;;;;3.58;1.50;;;11.50;68.90;;;;;;2547368;53;21381;-71
2023/04/15 06:57:37;;;;;;;4.78;1.42;;;11.60;68.90;;;;;;2306897;55;20963;-72
2023/04/15 07:00:04;;;;;;;3.22;1.37;;;11.60;68.80;;;;;;2307268;55;21891;-71
2023/04/15 07:02:31;;;;;;;3.15;1.33;;;11.70;68.70;;;;;;2310938;55;21022;-71
2023/04/15 07:04:57;;;;;;;3.97;1.60;;;11.70;68.70;;;;;;2292312;54;20943;-71
2023/04/15 07:07:24;;;;;;;4.97;2.40;;;11.70;68.70;;;;;;2308530;55;20968;-73
2023/04/15 07:09:52;;;;;;;7.40;2.72;;;11.70;68.70;;;;;;2543065;54;20927;-73
2023/04/15 07:12:21;;;;;;;5.53;2.62;;;11.70;68.70;;;;;;2306719;55;20959;-71
2023/04/15 07:14:48;;;;;;;5.85;2.58;;;11.80;68.80;;;;;;2305536;55;21003;-72
2023/04/15 07:17:17;;;;;;;7.15;2.85;;;11.90;68.80;;;;;;2305375;55;21904;-72
2023/04/15 07:19:46;;;;;;;4.03;1.95;;;11.90;68.70;;;;;;2304777;55;22027;-72
2023/04/15 07:22:25;;;;;;;4.15;2.05;;;11.90;68.60;;;;;;2543645;53;21118;-71
2023/04/15 07:24:51;;;;;;;4.75;1.90;;;11.90;68.30;;;;;;2546621;53;21006;-72
2023/04/15 07:27:18;;;;;;;5.03;1.80;;;11.90;68.80;;;;;;2306182;55;21070;-72
2023/04/15 07:29:44;;;;;;;4.53;1.90;;;12.00;68.90;;;;;;2545317;54;20940;-71
2023/04/15 07:32:10;;;;;;;4.40;2.10;;;12.00;69.10;;;;;;2310102;55;20979;-71
2023/04/15 07:34:37;;;;;;;5.15;1.87;;;12.00;69.40;;;;;;2546732;54;20935;-71
2023/04/15 07:37:06;;;;;;;5.15;2.40;;;12.10;69.90;;;;;;2546259;53;21595;-71
2023/04/15 07:39:32;;;;;;;5.85;1.87;;;12.20;70.00;;;;;;2310086;54;20937;-72
2023/04/15 07:42:01;;;;;;;3.47;1.55;;;12.20;70.40;;;;;;2545643;54;20923;-73
2023/04/15 07:44:29;;;;;;;4.70;1.80;;;12.30;70.80;;;;;;2306532;55;20955;-71
2023/04/15 07:46:57;;;;;;;4.85;1.77;;;12.50;71.10;;;;;;2308586;55;21035;-71
2023/04/15 07:49:27;;;;;;;5.97;1.90;;;12.60;71.50;;;;;;2309994;54;21571;-72
2023/04/15 07:51:56;;;;;;;3.75;1.40;;;12.70;72.40;;;;;;2542408;53;21475;-72
2023/04/15 07:54:25;;;;;;;3.85;1.60;;;12.80;71.90;;;;;;2524568;53;20937;-73
2023/04/15 07:56:51;;;;;;;4.65;1.70;;;13.00;72.40;;;;;;2539452;53;21005;-74
2023/04/15 07:59:17;;;;;;;3.92;2.08;;;13.10;72.80;;;;;;2300734;54;21018;-72
2023/04/15 08:01:45;;;;;;;4.82;1.75;;;13.20;72.80;;;;;;2306947;55;21094;-72
2023/04/15 08:04:11;;;;;;;3.30;1.73;;;13.40;73.00;;;;;;2528831;53;20935;-73
2023/04/15 08:06:38;;;;;;;4.03;1.90;;;13.50;73.10;;;;;;2303843;55;20979;-70
2023/04/15 08:09:05;;;;;;;3.45;1.45;;;13.70;73.00;;;;;;2308967;55;21996;-73
2023/04/15 08:11:35;;;;;;;2.95;1.40;;;13.80;72.70;;;;;;2281841;55;20919;-70
2023/04/15 08:14:01;;;;;;;3.78;1.48;;;13.90;72.50;;;;;;2542829;53;20931;-73
2023/04/15 08:16:28;;;;;;;3.55;1.60;;;14.00;72.90;;;;;;2542245;54;21015;-74
2023/04/15 08:18:55;;;;;;;2.90;1.50;;;14.20;73.10;;;;;;2305151;55;20959;-71
2023/04/15 08:21:21;;;;;;;3.25;1.20;;;14.30;73.30;;;;;;2541704;53;20951;-72
2023/04/15 08:23:49;;;;;;;3.40;1.37;;;14.50;73.60;;;;;;2304209;55;21031;-72
2023/04/15 08:26:16;;;;;;;4.03;1.50;;;14.60;73.60;;;;;;2543484;53;20947;-70
2023/04/15 08:28:44;;;;;;;3.90;1.30;;;14.60;73.20;;;;;;2546089;54;20967;-71
2023/04/15 08:31:12;;;;;;;2.90;1.27;;;14.90;73.00;;;;;;2544977;54;20943;-70
2023/04/15 08:33:38;;;;;;;3.85;1.30;;;15.00;72.60;;;;;;2305257;54;20949;-70
2023/04/15 08:36:07;;;;;;;2.95;1.25;;;15.10;72.50;;;;;;2305686;55;20959;-72
2023/04/15 08:38:34;;;;;;;3.28;1.20;;;15.10;72.30;;;;;;2305322;55;20979;-70
2023/04/15 08:41:15;;;;;;;4.50;1.20;;;15.30;72.20;;;;;;2306358;54;20947;-72
2023/04/15 08:43:57;;;;;;;2.80;1.10;;;15.40;71.90;;;;;;2545832;53;21362;-72
2023/04/15 08:46:23;;;;;;;3.35;1.00;;;15.40;71.40;;;;;;2306689;55;20931;-71
2023/04/15 08:48:51;;;;;;;2.58;1.05;;;15.50;71.50;;;;;;2306173;55;20958;-72
2023/04/15 08:51:18;;;;;;;2.55;1.10;;;15.60;71.30;;;;;;2544201;54;21039;-72
2023/04/15 08:53:46;;;;;;;2.53;1.10;;;15.70;71.10;;;;;;2307720;55;20935;-72
2023/04/15 08:56:15;;;;;;;3.40;1.12;;;15.70;71.10;;;;;;2312032;54;21052;-72
2023/04/15 08:58:47;;;;;;;2.55;1.00;;;15.80;70.90;;;;;;2532258;54;20936;-71
2023/04/15 09:01:14;;;;;;;2.45;1.00;;;15.80;70.70;;;;;;2303822;55;22265;-71
2023/04/15 09:03:41;;;;;;;6.62;1.10;;;15.90;70.90;;;;;;2541634;53;20899;-70
2023/04/15 09:06:07;;;;;;;3.47;1.45;;;16.00;70.90;;;;;;2541153;53;20927;-72
2023/04/15 09:08:35;;;;;;;3.15;1.20;;;16.00;70.60;;;;;;2300103;54;21453;-71
2023/04/15 09:11:02;;;;;;;4.28;1.30;;;16.10;70.20;;;;;;2297393;54;20962;-73
2023/04/15 09:13:31;;;;;;;3.42;1.17;;;16.10;70.20;;;;;;2534808;53;22031;-72
2023/04/15 09:16:00;;;;;;;;;;;16.20;70.20;;;;;;2304149;55;21062;-72
2023/04/15 09:18:31;;;;;;;2.08;0.82;;;16.20;68.00;;;;;;2299429;55;20406;-71
2023/04/15 09:21:07;;;;;;;3.60;1.27;;;16.30;70.10;;;;;;2299629;55;20983;-70
2023/04/15 09:23:35;;;;;;;3.05;1.08;;;16.20;69.60;;;;;;2534192;54;21370;-71
2023/04/15 09:26:04;;;;;;;2.55;1.00;;;16.40;70.40;;;;;;2538992;54;21008;-72
2023/04/15 09:28:32;;;;;;;3.05;1.40;;;16.40;70.30;;;;;;2300752;55;21022;-71
2023/04/15 09:31:01;;;;;;;4.75;1.48;;;16.50;70.00;;;;;;2540438;54;20983;-71
2023/04/15 09:33:30;;;;;;;2.65;1.10;;;16.50;70.00;;;;;;2539569;54;20995;-72
2023/04/15 09:36:06;;;;;;;2.80;1.40;;;16.60;70.00;;;;;;2539847;54;21026;-71
2023/04/15 09:38:32;;;;;;;2.20;1.00;;;16.60;69.20;;;;;;2298802;55;21707;-72
2023/04/15 09:41:00;;;;;;;2.70;1.12;;;16.70;70.10;;;;;;2302643;54;20966;-71
2023/04/15 09:43:39;;;;;;;3.87;1.20;;;16.70;69.90;;;;;;2297393;55;21830;-72
2023/04/15 09:46:05;;;;;;;2.50;1.15;;;16.70;68.50;;;;;;2298315;55;21377;-72
2023/04/15 09:48:32;;;;;;;2.47;1.10;;;16.70;69.70;;;;;;2532977;54;20995;-71
2023/04/15 09:51:01;;;;;;;2.87;1.12;;;16.80;69.80;;;;;;2300495;54;21099;-70
2023/04/15 09:53:28;;;;;;;2.67;1.20;;;16.80;69.20;;;;;;2277010;54;20947;-71
2023/04/15 09:55:57;;;;;;;3.55;1.15;;;16.80;69.50;;;;;;2522353;54;21031;-71
2023/04/15 09:58:25;;;;;;;2.95;1.00;;;16.90;69.20;;;;;;2288257;55;21086;-72
2023/04/15 10:03:30;;;;;;;3.28;1.17;;;16.90;69.10;;;;;;2411751;55;22864;-73
2023/04/15 10:05:58;;;;;;;3.10;0.95;;;17.00;68.90;;;;;;2210946;56;20922;-71
2023/04/15 10:08:29;;;;;;;3.78;1.10;;;17.00;69.00;;;;;;2450594;56;21544;-71
2023/04/15 10:10:57;;;;;;;1.80;0.73;;;17.00;69.30;;;;;;2225801;56;21699;-73
2023/04/15 10:13:25;;;;;;;1.87;0.80;;;17.10;69.50;;;;;;2446191;55;21916;-70
2023/04/15 10:16:20;;;;;;;2.08;1.00;;;17.10;69.30;;;;;;2225095;57;21001;-73
2023/04/15 10:18:52;;;;;;;2.62;1.00;;;17.20;68.50;;;;;;2447007;56;21016;-71
2023/04/15 10:21:21;;;;;;;2.70;1.15;;;17.20;69.60;;;;;;2441572;56;21522;-70
2023/04/15 10:23:47;;;;;;;2.17;0.90;;;17.40;69.60;;;;;;2423380;55;21981;-74
2023/04/15 10:26:16;;;;;;;2.05;0.70;;;17.40;69.60;;;;;;2202186;56;22246;-73
2023/04/15 10:28:47;;;;;;;1.85;0.75;;;17.40;69.60;;;;;;2432434;55;21032;-74
2023/04/15 10:31:15;;;;;;;2.03;0.73;;;17.50;69.60;;;;;;2427568;55;21102;-71
2023/04/15 10:33:42;;;;;;;2.15;0.70;;;17.50;70.10;;;;;;2429870;55;20961;-73
2023/04/15 10:36:16;;;;;;;2.20;0.80;;;17.70;70.40;;;;;;2436486;56;20961;-72
2023/04/15 10:38:46;;;;;;;3.20;1.00;;;17.70;70.00;;;;;;2436357;55;21590;-72
2023/04/15 10:41:28;;;;;;;4.90;1.10;;;17.80;70.00;;;;;;2215860;57;21022;-73
2023/04/15 10:44:01;;;;;;;;;;;17.80;68.90;;;;;;2446572;55;21352;-73
2023/04/15 10:46:41;;;;;;;4.53;1.10;;;18.00;68.40;;;;;;2216966;57;20421;-71
2023/04/15 10:49:12;;;;;;;5.05;1.00;;;18.10;69.00;;;;;;2416161;55;20979;-74
2023/04/15 10:51:42;;;;;;;3.10;1.20;;;18.10;70.00;;;;;;2199181;57;21096;-72
2023/04/15 10:54:13;;;;;;;2.50;0.85;;;18.20;69.30;;;;;;2241281;57;20997;-73
2023/04/15 10:56:47;;;;;;;2.30;0.87;;;18.20;69.00;;;;;;2432310;55;21031;-72
2023/04/15 10:59:15;;;;;;;1.55;0.70;;;18.30;69.40;;;;;;2440596;55;21079;-73
2023/04/15 11:01:55;;;;;;;2.40;0.90;;;18.30;69.90;;;;;;2217717;56;21022;-72
2023/04/15 11:04:56;;;;;;;3.05;1.00;;;18.40;68.80;;;;;;2219220;56;21034;-73
2023/04/15 11:08:05;;;;;;;2.85;1.02;;;18.50;68.20;;;;;;2219333;56;21134;-72
2023/04/15 11:10:58;;;;;;;2.47;0.70;;;18.60;68.00;;;;;;2439009;55;20991;-74
2023/04/15 11:13:26;;;;;;;2.35;0.73;;;18.60;68.90;;;;;;2459580;54;21527;-72
2023/04/15 11:15:55;;;;;;;3.12;1.10;;;18.70;70.80;;;;;;2443939;55;20979;-71
2023/04/15 11:18:27;;;;;;;3.05;1.00;;;18.80;70.00;;;;;;2441777;55;21413;-72
2023/04/15 11:20:58;;;;;;;3.60;0.80;;;18.90;70.40;;;;;;2439133;55;20963;-72
2023/04/15 11:23:32;;;;;;;2.80;1.02;;;18.90;70.50;;;;;;2438267;55;21554;-70
2023/04/15 11:26:05;;;;;;;3.05;1.10;;;19.00;69.60;;;;;;2238449;56;21529;-74
2023/04/15 11:28:32;;;;;;;3.42;0.85;;;19.10;70.30;;;;;;2433282;55;21071;-72
2023/04/15 11:31:07;;;;;;;2.62;1.08;;;19.20;70.10;;;;;;2431211;55;21454;-72
2023/04/15 11:33:35;;;;;;;2.50;1.00;;;19.20;69.40;;;;;;2210803;56;21850;-72
2023/04/15 11:36:03;;;;;;;2.12;0.90;;;19.30;69.60;;;;;;2427659;55;21444;-71
2023/04/15 11:38:30;;;;;;;2.85;1.20;;;19.30;69.70;;;;;;2219617;56;20999;-72
2023/04/15 11:40:57;;;;;;;3.12;1.10;;;19.40;69.90;;;;;;2429835;55;21204;-73
2023/04/15 11:43:25;;;;;;;2.60;0.95;;;19.50;69.90;;;;;;2426594;55;21505;-72
2023/04/15 11:45:59;;;;;;;2.22;0.88;;;19.50;69.80;;;;;;2435986;54;20997;-74
2023/04/15 11:48:27;;;;;;;3.00;0.98;;;19.60;69.20;;;;;;2434613;54;21023;-73
2023/04/15 11:50:58;;;;;;;4.45;1.23;;;19.60;69.50;;;;;;2449431;54;21475;-72
2023/04/15 11:53:41;;;;;;;3.75;1.35;;;19.70;68.80;;;;;;2444999;54;21664;-72
2023/04/15 11:56:29;;;;;;;3.65;1.30;;;19.80;68.00;;;;;;2222640;56;20926;-73
2023/04/15 11:59:00;;;;;;;2.83;1.20;;;19.90;67.10;;;;;;2207585;56;21126;-72
2023/04/15 12:01:42;;;;;;;2.20;0.95;;;19.90;68.50;;;;;;2419216;54;21000;-72
2023/04/15 12:04:19;;;;;;;4.22;1.60;;;20.00;67.20;;;;;;2426148;55;20960;-73
2023/04/15 12:06:51;;;;;;;2.53;1.00;;;20.00;67.60;;;;;;2204337;56;21011;-73
2023/04/15 12:09:20;;;;;;;3.00;1.10;;;20.10;69.20;;;;;;2191443;56;21086;-72
2023/04/15 12:11:58;;;;;;;2.60;1.00;;;20.10;67.60;;;;;;2437454;55;21890;-72
2023/04/15 12:14:28;;;;;;;3.78;1.17;;;20.20;66.40;;;;;;2227055;56;22080;-73
2023/04/15 12:17:05;;;;;;;4.12;1.05;;;20.20;68.60;;;;;;2425471;55;21970;-72
2023/04/15 12:19:37;;;;;;;2.08;0.90;;;20.20;65.70;;;;;;2210341;56;20983;-72
2023/04/15 12:22:12;;;;;;;3.05;1.08;;;20.30;66.40;;;;;;2221335;56;21922;-73
2023/04/15 12:24:39;;;;;;;2.60;0.90;;;20.30;66.70;;;;;;2207953;56;21494;-73
2023/04/15 12:27:10;;;;;;;2.40;0.95;;;20.30;67.00;;;;;;2220947;56;22062;-72
2023/04/15 12:29:37;;;;;;;2.62;0.93;;;20.40;67.00;;;;;;2434994;55;22369;-72
2023/04/15 12:32:12;;;;;;;2.20;0.70;;;20.40;67.20;;;;;;2211056;56;22074;-73
2023/04/15 12:34:43;;;;;;;2.25;0.88;;;20.40;65.80;;;;;;2203005;56;21162;-74
2023/04/15 12:37:13;;;;;;;1.92;0.60;;;20.50;65.70;;;;;;2212153;56;20940;-75
2023/04/15 12:39:43;;;;;;;2.30;0.77;;;20.50;66.20;;;;;;2213599;56;20956;-73
2023/04/15 12:42:10;;;;;;;2.30;0.68;;;20.50;65.50;;;;;;2440304;55;21065;-75
2023/04/15 12:44:39;;;;;;;4.78;0.93;;;20.50;65.50;;;;;;2416039;55;21934;-71
2023/04/15 12:47:08;;;;;;;2.53;0.80;;;20.50;65.30;;;;;;2406296;55;21024;-71
2023/04/15 12:49:35;;;;;;;2.15;0.80;;;20.60;65.90;;;;;;2410280;55;21034;-74
2023/04/15 12:52:03;;;;;;;2.62;0.90;;;20.50;65.50;;;;;;2210786;56;20977;-72
2023/04/15 12:54:29;;;;;;;1.85;0.60;;;20.60;65.30;;;;;;2424700;54;21031;-74
2023/04/15 12:56:59;;;;;;;3.62;1.05;;;20.60;65.00;;;;;;2403964;55;22229;-71
2023/04/15 12:59:29;;;;;;;3.08;1.00;;;20.60;64.30;;;;;;2422401;55;21747;-71